Vision — WDF6306 — position and weather

sailwx.info

Track history (hours):
 
Tides and Currents Weather Stations Pressure Air Temp Water Temp Dewpoint Dewpoint Depression Visibility Wind Speed Wind Dir Waves Ship Positions

Vision

Owner: INTREPID SHIP MANAGEMENT, JACKSONVILLE, FL. More information available from US FCC via Universal Licensing System and Coast Guard Vessel Documentation Center.

Last reported at 2015-Feb-01 14:33 UTC. Time now 2015-Feb-01 14:49 UTC.
Position N 48°23' W 125°59'.

Length 199 m; draft 6.4 m.

Type: Towing. MMSI: 366904000.

Date/timePositionNaut miles runAvg speedWind from/ knotsBaromVisibWave heightAir tempDewpointWater temp
2015-Feb-01 14:33N 48°23' W 125°59'4 3.9
2015-Feb-01 13:34N 48°20' W 126°03'4 4.1
2015-Feb-01 12:28N 48°17' W 126°07'5 4.0
2015-Feb-01 11:10N 48°12' W 126°09'8 4.3
2015-Feb-01 09:20N 48°04' W 126°11'32 3.2
2015-Jan-31 23:16N 47°33' W 126°23'  
2015-Jan-29 01:19N 48°08' W 125°38'7 9.5
2015-Jan-29 00:33N 48°12' W 125°29'1110.5
2015-Jan-28 23:32N 48°19' W 125°17'1211.8
2015-Jan-28 22:33N 48°27' W 125°05'810.7
2015-Jan-28 21:48N 48°31' W 124°54'313.1
2015-Jan-28 21:33N 48°31' W 124°49'1312.7
2015-Jan-28 20:33N 48°27' W 124°31'1312.8
2015-Jan-28 19:34N 48°22' W 124°13'1312.6
2015-Jan-28 18:33N 48°17' W 123°56'011.7
2015-Jan-28 18:32N 48°17' W 123°55'1212.1
2015-Jan-28 17:33N 48°15' W 123°38'412.2
2015-Jan-28 17:15N 48°15' W 123°32'811.1
2015-Jan-28 16:33N 48°10' W 123°23'1 9.2
2015-Jan-28 16:26N 48°09' W 123°22'1011.7
2015-Jan-28 15:33N 48°15' W 123°10'412.2
2015-Jan-28 15:15N 48°17' W 123°06'812.2
2015-Jan-28 14:34N 48°22' W 122°55'612.1
2015-Jan-28 14:05N 48°25' W 122°48'612.2
2015-Jan-28 13:33N 48°30' W 122°43'311.9
2015-Jan-28 13:20N 48°31' W 122°39'3 3.6
2015-Jan-28 12:33N 48°31' W 122°35'0 0.0
2015-Jan-28 11:33N 48°31' W 122°35'0 0.0
2015-Jan-28 10:33N 48°31' W 122°35'0 0.0
2015-Jan-28 09:33N 48°31' W 122°35'0 0.0
2015-Jan-28 08:33N 48°31' W 122°35'0 0.0
2015-Jan-28 07:33N 48°31' W 122°35'0 0.0
2015-Jan-28 06:33N 48°31' W 122°35'0 0.0
2015-Jan-28 05:33N 48°31' W 122°35'0 0.0
2015-Jan-28 04:33N 48°31' W 122°35'0 0.0
2015-Jan-28 03:30N 48°31' W 122°35'0 0.0
2015-Jan-28 02:33N 48°31' W 122°35'0 0.0
2015-Jan-28 01:33N 48°31' W 122°35'0 0.0
2015-Jan-28 00:33N 48°31' W 122°35'0 0.0
2015-Jan-27 23:33N 48°31' W 122°35'0 0.0
2015-Jan-27 22:33N 48°31' W 122°35'0 0.0
2015-Jan-27 21:33N 48°31' W 122°35'0 0.0
2015-Jan-27 20:33N 48°31' W 122°35'0 0.0
2015-Jan-27 19:33N 48°31' W 122°35'0 0.0
2015-Jan-27 18:33N 48°31' W 122°35'0 0.0
2015-Jan-27 17:33N 48°31' W 122°35'0 0.0
2015-Jan-27 16:33N 48°31' W 122°35'0 0.0
2015-Jan-27 15:33N 48°31' W 122°35'0 0.0
2015-Jan-27 14:33N 48°31' W 122°35'0 0.0
2015-Jan-27 13:33N 48°31' W 122°35'0 0.0
2015-Jan-27 12:33N 48°31' W 122°35'0 0.0
2015-Jan-27 11:33N 48°31' W 122°35'0 0.0
2015-Jan-27 10:33N 48°31' W 122°35'0 0.0
2015-Jan-27 09:33N 48°31' W 122°35'0 0.0
2015-Jan-27 08:33N 48°31' W 122°35'0 0.0
2015-Jan-27 07:33N 48°31' W 122°35'0 0.0
2015-Jan-27 06:33N 48°31' W 122°35'0 0.0
2015-Jan-27 06:16N 48°31' W 122°35'0 0.1
2015-Jan-27 05:33N 48°31' W 122°35'0 0.0
2015-Jan-27 04:27N 48°31' W 122°35'0 0.0
2015-Jan-27 03:33N 48°31' W 122°35'0 0.0
2015-Jan-27 02:33N 48°31' W 122°35'0 0.0
2015-Jan-27 01:33N 48°31' W 122°35'0 0.0
2015-Jan-27 00:33N 48°31' W 122°35'0 0.0
2015-Jan-26 23:33N 48°31' W 122°35'0 0.0
2015-Jan-26 22:33N 48°31' W 122°35'0 0.0
2015-Jan-26 21:33N 48°31' W 122°35'0 0.0
2015-Jan-26 20:33N 48°31' W 122°35'0 0.0
2015-Jan-26 19:33N 48°31' W 122°35'0 0.0
2015-Jan-26 18:33N 48°31' W 122°35'0 0.0
2015-Jan-26 17:30N 48°31' W 122°35'0 0.0
2015-Jan-26 16:33N 48°31' W 122°35'0 0.0
2015-Jan-26 15:33N 48°31' W 122°35'0 0.0
2015-Jan-26 14:30N 48°31' W 122°35'0 0.0
2015-Jan-26 13:33N 48°31' W 122°35'0 0.0
2015-Jan-26 12:33N 48°31' W 122°35'0 0.2
2015-Jan-26 12:03N 48°31' W 122°35'1 1.1
2015-Jan-26 11:30N 48°31' W 122°35'0 0.2
2015-Jan-26 11:18N 48°31' W 122°35'0 0.0
2015-Jan-26 10:33N 48°31' W 122°35'0 0.0
2015-Jan-26 10:18N 48°31' W 122°35'0 0.0
2015-Jan-26 09:24N 48°31' W 122°35'0 0.0
2015-Jan-26 08:30N 48°31' W 122°35'0 0.0
2015-Jan-26 07:33N 48°31' W 122°35'0 0.0
2015-Jan-26 06:30N 48°31' W 122°35'0 0.1
2015-Jan-26 05:33N 48°31' W 122°35'0 0.1
2015-Jan-26 04:30N 48°31' W 122°35'0 0.1
2015-Jan-26 03:30N 48°31' W 122°35'0 0.2
2015-Jan-26 02:30N 48°31' W 122°35'0 0.1
2015-Jan-26 01:24N 48°31' W 122°35'0 0.1
2015-Jan-26 00:30N 48°31' W 122°35'0 0.1
2015-Jan-25 23:24N 48°31' W 122°35'0 0.0
2015-Jan-25 22:30N 48°31' W 122°35'0 0.0
2015-Jan-25 21:33N 48°31' W 122°35'0 0.0
2015-Jan-25 20:24N 48°31' W 122°35'0 0.0
2015-Jan-25 19:30N 48°31' W 122°35'0 0.0
2015-Jan-25 18:30N 48°31' W 122°35'0 0.1
2015-Jan-25 17:30N 48°31' W 122°35'0 0.0
2015-Jan-25 16:33N 48°31' W 122°35'0 0.0
2015-Jan-25 15:33N 48°31' W 122°35'0 0.0
2015-Jan-25 14:30N 48°31' W 122°35'0 0.2
2015-Jan-25 13:30N 48°31' W 122°35'0 0.2
2015-Jan-25 12:30N 48°31' W 122°35'0 0.1
2015-Jan-25 11:30N 48°31' W 122°35'0 0.2
2015-Jan-25 10:30N 48°31' W 122°35'0 0.0
2015-Jan-25 09:30N 48°31' W 122°35'0 0.0
2015-Jan-25 08:30N 48°31' W 122°35'0 0.0
2015-Jan-25 07:24N 48°31' W 122°35'0 0.0
2015-Jan-25 06:30N 48°31' W 122°35'0 0.0
2015-Jan-25 05:30N 48°31' W 122°35'0 0.0
2015-Jan-25 04:33N 48°31' W 122°35'0 0.0
2015-Jan-25 03:30N 48°31' W 122°35'0 0.1
2015-Jan-25 02:30N 48°31' W 122°35'0 0.1
2015-Jan-25 01:30N 48°31' W 122°35'0 0.2
2015-Jan-25 00:30N 48°31' W 122°35'0 0.1
2015-Jan-24 23:33N 48°31' W 122°35'0 0.0
2015-Jan-24 22:30N 48°31' W 122°35'0 0.0
2015-Jan-24 21:33N 48°31' W 122°35'0 0.0
2015-Jan-24 20:30N 48°31' W 122°35'0 0.0
2015-Jan-24 19:30N 48°31' W 122°35'0 0.0
2015-Jan-24 18:30N 48°31' W 122°35'0 0.1
2015-Jan-24 17:30N 48°31' W 122°35'0 0.0
2015-Jan-24 16:30N 48°31' W 122°35'0 0.0
2015-Jan-24 15:30N 48°31' W 122°35'0 0.0
2015-Jan-24 14:30N 48°31' W 122°35'0 0.0
2015-Jan-24 13:24N 48°31' W 122°35'0 0.2
2015-Jan-24 12:30N 48°31' W 122°35'0 0.2
2015-Jan-24 11:30N 48°31' W 122°35'0 0.1
2015-Jan-24 10:30N 48°31' W 122°35'0 0.1
2015-Jan-24 09:33N 48°31' W 122°35'0 0.0
2015-Jan-24 08:33N 48°31' W 122°35'0 0.0
2015-Jan-24 07:33N 48°31' W 122°35'0 0.0
2015-Jan-24 06:33N 48°31' W 122°35'0 0.0
2015-Jan-24 05:30N 48°31' W 122°35'0 0.0
2015-Jan-24 04:24N 48°31' W 122°35'0 0.0
2015-Jan-24 03:30N 48°31' W 122°35'0 0.1
2015-Jan-24 02:33N 48°31' W 122°35'0 0.0
2015-Jan-24 01:33N 48°31' W 122°35'0 0.1
2015-Jan-24 00:30N 48°31' W 122°35'0 0.1
2015-Jan-23 23:30N 48°31' W 122°35'0 0.1
2015-Jan-23 22:52N 48°31' W 122°35'1 2.6
2015-Jan-23 22:33N 48°32' W 122°34'2 5.8
2015-Jan-23 22:17N 48°33' W 122°35'6 8.9
2015-Jan-23 21:33N 48°39' W 122°40'1312.7
2015-Jan-23 20:33N 48°47' W 122°54'1313.1
2015-Jan-23 19:33N 48°55' W 123°10'1312.7
2015-Jan-23 18:34N 49°04' W 123°24'1312.5
2015-Jan-23 17:34N 49°16' W 123°21'1110.7
2015-Jan-23 16:33N 49°18' W 123°04'4 3.9
2015-Jan-23 15:30N 49°18' W 122°58'0 0.0
2015-Jan-23 14:33N 49°18' W 122°58'0 0.2
2015-Jan-23 13:33N 49°18' W 122°58'0 0.2
2015-Jan-23 12:33N 49°18' W 122°58'0 0.1
2015-Jan-23 11:34N 49°18' W 122°58'0 0.0
2015-Jan-23 10:33N 49°18' W 122°58'0 0.2
2015-Jan-23 09:33N 49°18' W 122°58'0 0.2
2015-Jan-23 08:33N 49°18' W 122°58'1 0.6
2015-Jan-23 07:32N 49°17' W 122°57'0 0.0
2015-Jan-23 06:32N 49°17' W 122°57'0 0.0
2015-Jan-23 05:32N 49°17' W 122°57'0 0.0
2015-Jan-23 04:32N 49°17' W 122°57'0 0.0
2015-Jan-23 03:29N 49°17' W 122°57'0 0.0
2015-Jan-23 02:32N 49°17' W 122°57'0 0.0
2015-Jan-23 01:33N 49°17' W 122°57'0 0.0
2015-Jan-23 00:32N 49°17' W 122°57'0 0.0
2015-Jan-22 23:32N 49°17' W 122°57'0 0.0
2015-Jan-22 22:32N 49°17' W 122°57'0 0.0
2015-Jan-22 21:32N 49°17' W 122°57'0 0.0
2015-Jan-22 20:32N 49°17' W 122°57'0 0.0
2015-Jan-22 19:32N 49°17' W 122°57'0 0.0
2015-Jan-22 18:29N 49°17' W 122°57'0 0.0
2015-Jan-22 17:29N 49°17' W 122°57'0 0.0
2015-Jan-22 16:32N 49°17' W 122°57'0 0.0
2015-Jan-22 15:32N 49°17' W 122°57'0 0.0
2015-Jan-22 14:50N 49°17' W 122°57'  
Track history (hours):
 
Tides and Currents Weather Stations Pressure Air Temp Water Temp Dewpoint Dewpoint Depression Visibility Wind Speed Wind Dir Waves Ship Positions

Vision

Owner: INTREPID SHIP MANAGEMENT, JACKSONVILLE, FL. More information available from US FCC via Universal Licensing System and Coast Guard Vessel Documentation Center.

Last reported at 2015-Feb-01 14:33 UTC. Time now 2015-Feb-01 14:49 UTC.
Position N 48°23' W 125°59'.

Length 199 m; draft 6.4 m.

Type: Towing. MMSI: 366904000.

Date/timePositionNaut miles runAvg speedWind from/ knotsBaromVisibWave heightAir tempDewpointWater temp
2015-Feb-01 14:33N 48°23' W 125°59'4 3.9
2015-Feb-01 13:34N 48°20' W 126°03'4 4.1
2015-Feb-01 12:28N 48°17' W 126°07'5 4.0
2015-Feb-01 11:10N 48°12' W 126°09'8 4.3
2015-Feb-01 09:20N 48°04' W 126°11'32 3.2
2015-Jan-31 23:16N 47°33' W 126°23'  
2015-Jan-29 01:19N 48°08' W 125°38'7 9.5
2015-Jan-29 00:33N 48°12' W 125°29'1110.5
2015-Jan-28 23:32N 48°19' W 125°17'1211.8
2015-Jan-28 22:33N 48°27' W 125°05'810.7
2015-Jan-28 21:48N 48°31' W 124°54'313.1
2015-Jan-28 21:33N 48°31' W 124°49'1312.7
2015-Jan-28 20:33N 48°27' W 124°31'1312.8
2015-Jan-28 19:34N 48°22' W 124°13'1312.6
2015-Jan-28 18:33N 48°17' W 123°56'011.7
2015-Jan-28 18:32N 48°17' W 123°55'1212.1
2015-Jan-28 17:33N 48°15' W 123°38'412.2
2015-Jan-28 17:15N 48°15' W 123°32'811.1
2015-Jan-28 16:33N 48°10' W 123°23'1 9.2
2015-Jan-28 16:26N 48°09' W 123°22'1011.7
2015-Jan-28 15:33N 48°15' W 123°10'412.2
2015-Jan-28 15:15N 48°17' W 123°06'812.2
2015-Jan-28 14:34N 48°22' W 122°55'612.1
2015-Jan-28 14:05N 48°25' W 122°48'612.2
2015-Jan-28 13:33N 48°30' W 122°43'311.9
2015-Jan-28 13:20N 48°31' W 122°39'3 3.6
2015-Jan-28 12:33N 48°31' W 122°35'0 0.0
2015-Jan-28 11:33N 48°31' W 122°35'0 0.0
2015-Jan-28 10:33N 48°31' W 122°35'0 0.0
2015-Jan-28 09:33N 48°31' W 122°35'0 0.0
2015-Jan-28 08:33N 48°31' W 122°35'0 0.0
2015-Jan-28 07:33N 48°31' W 122°35'0 0.0
2015-Jan-28 06:33N 48°31' W 122°35'0 0.0
2015-Jan-28 05:33N 48°31' W 122°35'0 0.0
2015-Jan-28 04:33N 48°31' W 122°35'0 0.0
2015-Jan-28 03:30N 48°31' W 122°35'0 0.0
2015-Jan-28 02:33N 48°31' W 122°35'0 0.0
2015-Jan-28 01:33N 48°31' W 122°35'0 0.0
2015-Jan-28 00:33N 48°31' W 122°35'0 0.0
2015-Jan-27 23:33N 48°31' W 122°35'0 0.0
2015-Jan-27 22:33N 48°31' W 122°35'0 0.0
2015-Jan-27 21:33N 48°31' W 122°35'0 0.0
2015-Jan-27 20:33N 48°31' W 122°35'0 0.0
2015-Jan-27 19:33N 48°31' W 122°35'0 0.0
2015-Jan-27 18:33N 48°31' W 122°35'0 0.0
2015-Jan-27 17:33N 48°31' W 122°35'0 0.0
2015-Jan-27 16:33N 48°31' W 122°35'0 0.0
2015-Jan-27 15:33N 48°31' W 122°35'0 0.0
2015-Jan-27 14:33N 48°31' W 122°35'0 0.0
2015-Jan-27 13:33N 48°31' W 122°35'0 0.0
2015-Jan-27 12:33N 48°31' W 122°35'0 0.0
2015-Jan-27 11:33N 48°31' W 122°35'0 0.0
2015-Jan-27 10:33N 48°31' W 122°35'0 0.0
2015-Jan-27 09:33N 48°31' W 122°35'0 0.0
2015-Jan-27 08:33N 48°31' W 122°35'0 0.0
2015-Jan-27 07:33N 48°31' W 122°35'0 0.0
2015-Jan-27 06:33N 48°31' W 122°35'0 0.0
2015-Jan-27 06:16N 48°31' W 122°35'0 0.1
2015-Jan-27 05:33N 48°31' W 122°35'0 0.0
2015-Jan-27 04:27N 48°31' W 122°35'0 0.0
2015-Jan-27 03:33N 48°31' W 122°35'0 0.0
2015-Jan-27 02:33N 48°31' W 122°35'0 0.0
2015-Jan-27 01:33N 48°31' W 122°35'0 0.0
2015-Jan-27 00:33N 48°31' W 122°35'0 0.0
2015-Jan-26 23:33N 48°31' W 122°35'0 0.0
2015-Jan-26 22:33N 48°31' W 122°35'0 0.0
2015-Jan-26 21:33N 48°31' W 122°35'0 0.0
2015-Jan-26 20:33N 48°31' W 122°35'0 0.0
2015-Jan-26 19:33N 48°31' W 122°35'0 0.0
2015-Jan-26 18:33N 48°31' W 122°35'0 0.0
2015-Jan-26 17:30N 48°31' W 122°35'0 0.0
2015-Jan-26 16:33N 48°31' W 122°35'0 0.0
2015-Jan-26 15:33N 48°31' W 122°35'0 0.0
2015-Jan-26 14:30N 48°31' W 122°35'0 0.0
2015-Jan-26 13:33N 48°31' W 122°35'0 0.0
2015-Jan-26 12:33N 48°31' W 122°35'0 0.2
2015-Jan-26 12:03N 48°31' W 122°35'1 1.1
2015-Jan-26 11:30N 48°31' W 122°35'0 0.2
2015-Jan-26 11:18N 48°31' W 122°35'0 0.0
2015-Jan-26 10:33N 48°31' W 122°35'0 0.0
2015-Jan-26 10:18N 48°31' W 122°35'0 0.0
2015-Jan-26 09:24N 48°31' W 122°35'0 0.0
2015-Jan-26 08:30N 48°31' W 122°35'0 0.0
2015-Jan-26 07:33N 48°31' W 122°35'0 0.0
2015-Jan-26 06:30N 48°31' W 122°35'0 0.1
2015-Jan-26 05:33N 48°31' W 122°35'0 0.1
2015-Jan-26 04:30N 48°31' W 122°35'0 0.1
2015-Jan-26 03:30N 48°31' W 122°35'0 0.2
2015-Jan-26 02:30N 48°31' W 122°35'0 0.1
2015-Jan-26 01:24N 48°31' W 122°35'0 0.1
2015-Jan-26 00:30N 48°31' W 122°35'0 0.1
2015-Jan-25 23:24N 48°31' W 122°35'0 0.0
2015-Jan-25 22:30N 48°31' W 122°35'0 0.0
2015-Jan-25 21:33N 48°31' W 122°35'0 0.0
2015-Jan-25 20:24N 48°31' W 122°35'0 0.0
2015-Jan-25 19:30N 48°31' W 122°35'0 0.0
2015-Jan-25 18:30N 48°31' W 122°35'0 0.1
2015-Jan-25 17:30N 48°31' W 122°35'0 0.0
2015-Jan-25 16:33N 48°31' W 122°35'0 0.0
2015-Jan-25 15:33N 48°31' W 122°35'0 0.0
2015-Jan-25 14:30N 48°31' W 122°35'0 0.2
2015-Jan-25 13:30N 48°31' W 122°35'0 0.2
2015-Jan-25 12:30N 48°31' W 122°35'0 0.1
2015-Jan-25 11:30N 48°31' W 122°35'0 0.2
2015-Jan-25 10:30N 48°31' W 122°35'0 0.0
2015-Jan-25 09:30N 48°31' W 122°35'0 0.0
2015-Jan-25 08:30N 48°31' W 122°35'0 0.0
2015-Jan-25 07:24N 48°31' W 122°35'0 0.0
2015-Jan-25 06:30N 48°31' W 122°35'0 0.0
2015-Jan-25 05:30N 48°31' W 122°35'0 0.0
2015-Jan-25 04:33N 48°31' W 122°35'0 0.0
2015-Jan-25 03:30N 48°31' W 122°35'0 0.1
2015-Jan-25 02:30N 48°31' W 122°35'0 0.1
2015-Jan-25 01:30N 48°31' W 122°35'0 0.2
2015-Jan-25 00:30N 48°31' W 122°35'0 0.1
2015-Jan-24 23:33N 48°31' W 122°35'0 0.0
2015-Jan-24 22:30N 48°31' W 122°35'0 0.0
2015-Jan-24 21:33N 48°31' W 122°35'0 0.0
2015-Jan-24 20:30N 48°31' W 122°35'0 0.0
2015-Jan-24 19:30N 48°31' W 122°35'0 0.0
2015-Jan-24 18:30N 48°31' W 122°35'0 0.1
2015-Jan-24 17:30N 48°31' W 122°35'0 0.0
2015-Jan-24 16:30N 48°31' W 122°35'0 0.0
2015-Jan-24 15:30N 48°31' W 122°35'0 0.0
2015-Jan-24 14:30N 48°31' W 122°35'0 0.0
2015-Jan-24 13:24N 48°31' W 122°35'0 0.2
2015-Jan-24 12:30N 48°31' W 122°35'0 0.2
2015-Jan-24 11:30N 48°31' W 122°35'0 0.1
2015-Jan-24 10:30N 48°31' W 122°35'0 0.1
2015-Jan-24 09:33N 48°31' W 122°35'0 0.0
2015-Jan-24 08:33N 48°31' W 122°35'0 0.0
2015-Jan-24 07:33N 48°31' W 122°35'0 0.0
2015-Jan-24 06:33N 48°31' W 122°35'0 0.0
2015-Jan-24 05:30N 48°31' W 122°35'0 0.0
2015-Jan-24 04:24N 48°31' W 122°35'0 0.0
2015-Jan-24 03:30N 48°31' W 122°35'0 0.1
2015-Jan-24 02:33N 48°31' W 122°35'0 0.0
2015-Jan-24 01:33N 48°31' W 122°35'0 0.1
2015-Jan-24 00:30N 48°31' W 122°35'0 0.1
2015-Jan-23 23:30N 48°31' W 122°35'0 0.1
2015-Jan-23 22:52N 48°31' W 122°35'1 2.6
2015-Jan-23 22:33N 48°32' W 122°34'2 5.8
2015-Jan-23 22:17N 48°33' W 122°35'6 8.9
2015-Jan-23 21:33N 48°39' W 122°40'1312.7
2015-Jan-23 20:33N 48°47' W 122°54'1313.1
2015-Jan-23 19:33N 48°55' W 123°10'1312.7
2015-Jan-23 18:34N 49°04' W 123°24'1312.5
2015-Jan-23 17:34N 49°16' W 123°21'1110.7
2015-Jan-23 16:33N 49°18' W 123°04'4 3.9
2015-Jan-23 15:30N 49°18' W 122°58'0 0.0
2015-Jan-23 14:33N 49°18' W 122°58'0 0.2
2015-Jan-23 13:33N 49°18' W 122°58'0 0.2
2015-Jan-23 12:33N 49°18' W 122°58'0 0.1
2015-Jan-23 11:34N 49°18' W 122°58'0 0.0
2015-Jan-23 10:33N 49°18' W 122°58'0 0.2
2015-Jan-23 09:33N 49°18' W 122°58'0 0.2
2015-Jan-23 08:33N 49°18' W 122°58'1 0.6
2015-Jan-23 07:32N 49°17' W 122°57'0 0.0
2015-Jan-23 06:32N 49°17' W 122°57'0 0.0
2015-Jan-23 05:32N 49°17' W 122°57'0 0.0
2015-Jan-23 04:32N 49°17' W 122°57'0 0.0
2015-Jan-23 03:29N 49°17' W 122°57'0 0.0
2015-Jan-23 02:32N 49°17' W 122°57'0 0.0
2015-Jan-23 01:33N 49°17' W 122°57'0 0.0
2015-Jan-23 00:32N 49°17' W 122°57'0 0.0
2015-Jan-22 23:32N 49°17' W 122°57'0 0.0
2015-Jan-22 22:32N 49°17' W 122°57'0 0.0
2015-Jan-22 21:32N 49°17' W 122°57'0 0.0
2015-Jan-22 20:32N 49°17' W 122°57'0 0.0
2015-Jan-22 19:32N 49°17' W 122°57'0 0.0
2015-Jan-22 18:29N 49°17' W 122°57'0 0.0
2015-Jan-22 17:29N 49°17' W 122°57'0 0.0
2015-Jan-22 16:32N 49°17' W 122°57'0 0.0
2015-Jan-22 15:32N 49°17' W 122°57'0 0.0
2015-Jan-22 14:50N 49°17' W 122°57'  

Dump ship's entire track history